sensor_id;sensor_type;location;lat;lon;timestamp;P1;durP1;ratioP1;P2;durP2;ratioP2
15126;SDS011;7664;52.008;4.748;2022-12-08T00:00:07;1.65;;;0.20;;
15126;SDS011;7664;52.008;4.748;2022-12-08T00:02:38;0.20;;;0.20;;
15126;SDS011;7664;52.008;4.748;2022-12-08T00:05:09;2.92;;;0.40;;
15126;SDS011;7664;52.008;4.748;2022-12-08T00:07:56;2.63;;;0.30;;
15126;SDS011;7664;52.008;4.748;2022-12-08T00:10:42;1.20;;;0.57;;
15126;SDS011;7664;52.008;4.748;2022-12-08T00:13:16;0.90;;;0.25;;
15126;SDS011;7664;52.008;4.748;2022-12-08T00:15:45;0.52;;;0.30;;
15126;SDS011;7664;52.008;4.748;2022-12-08T00:18:13;2.40;;;0.38;;
15126;SDS011;7664;52.008;4.748;2022-12-08T00:20:42;1.48;;;0.50;;
15126;SDS011;7664;52.008;4.748;2022-12-08T00:23:10;0.88;;;0.50;;
15126;SDS011;7664;52.008;4.748;2022-12-08T00:25:39;1.38;;;0.40;;
15126;SDS011;7664;52.008;4.748;2022-12-08T00:28:07;0.65;;;0.40;;
15126;SDS011;7664;52.008;4.748;2022-12-08T00:30:39;0.93;;;0.82;;
15126;SDS011;7664;52.008;4.748;2022-12-08T00:33:07;1.55;;;1.25;;
15126;SDS011;7664;52.008;4.748;2022-12-08T00:35:36;1.00;;;0.90;;
15126;SDS011;7664;52.008;4.748;2022-12-08T00:38:08;1.90;;;1.48;;
15126;SDS011;7664;52.008;4.748;2022-12-08T00:40:37;2.88;;;1.48;;
15126;SDS011;7664;52.008;4.748;2022-12-08T00:43:05;3.17;;;1.65;;
15126;SDS011;7664;52.008;4.748;2022-12-08T00:45:34;2.58;;;1.85;;
15126;SDS011;7664;52.008;4.748;2022-12-08T00:48:04;2.03;;;1.83;;
15126;SDS011;7664;52.008;4.748;2022-12-08T00:50:34;2.45;;;1.52;;
15126;SDS011;7664;52.008;4.748;2022-12-08T00:53:03;2.30;;;1.90;;
15126;SDS011;7664;52.008;4.748;2022-12-08T00:55:32;2.10;;;1.90;;
15126;SDS011;7664;52.008;4.748;2022-12-08T00:58:00;4.10;;;2.30;;
15126;SDS011;7664;52.008;4.748;2022-12-08T01:00:29;2.67;;;2.33;;
15126;SDS011;7664;52.008;4.748;2022-12-08T01:02:58;3.20;;;2.25;;
15126;SDS011;7664;52.008;4.748;2022-12-08T01:05:28;4.03;;;2.35;;
15126;SDS011;7664;52.008;4.748;2022-12-08T01:07:57;2.97;;;2.22;;
15126;SDS011;7664;52.008;4.748;2022-12-08T01:10:26;6.40;;;3.00;;
15126;SDS011;7664;52.008;4.748;2022-12-08T01:12:54;3.83;;;2.28;;
15126;SDS011;7664;52.008;4.748;2022-12-08T01:15:22;3.63;;;2.17;;
15126;SDS011;7664;52.008;4.748;2022-12-08T01:17:50;2.20;;;1.90;;
15126;SDS011;7664;52.008;4.748;2022-12-08T01:20:19;3.05;;;1.83;;
15126;SDS011;7664;52.008;4.748;2022-12-08T01:22:48;2.25;;;2.05;;
15126;SDS011;7664;52.008;4.748;2022-12-08T01:25:17;3.63;;;1.52;;
15126;SDS011;7664;52.008;4.748;2022-12-08T01:27:45;1.42;;;1.33;;
15126;SDS011;7664;52.008;4.748;2022-12-08T01:30:14;3.88;;;1.27;;
15126;SDS011;7664;52.008;4.748;2022-12-08T01:32:42;1.63;;;1.15;;
15126;SDS011;7664;52.008;4.748;2022-12-08T01:35:10;1.98;;;1.30;;
15126;SDS011;7664;52.008;4.748;2022-12-08T01:37:39;3.15;;;1.50;;
15126;SDS011;7664;52.008;4.748;2022-12-08T01:40:09;2.50;;;1.17;;
15126;SDS011;7664;52.008;4.748;2022-12-08T01:42:39;2.35;;;1.05;;
15126;SDS011;7664;52.008;4.748;2022-12-08T01:45:11;1.13;;;0.98;;
15126;SDS011;7664;52.008;4.748;2022-12-08T01:47:41;2.60;;;1.25;;
15126;SDS011;7664;52.008;4.748;2022-12-08T01:50:13;3.00;;;1.42;;
15126;SDS011;7664;52.008;4.748;2022-12-08T01:52:44;2.90;;;1.15;;
15126;SDS011;7664;52.008;4.748;2022-12-08T01:55:15;2.13;;;0.85;;
15126;SDS011;7664;52.008;4.748;2022-12-08T01:57:45;1.48;;;0.98;;
15126;SDS011;7664;52.008;4.748;2022-12-08T02:00:15;2.50;;;0.82;;
15126;SDS011;7664;52.008;4.748;2022-12-08T02:02:46;3.08;;;1.50;;
15126;SDS011;7664;52.008;4.748;2022-12-08T02:05:17;2.22;;;1.08;;
15126;SDS011;7664;52.008;4.748;2022-12-08T02:07:46;2.88;;;0.90;;
15126;SDS011;7664;52.008;4.748;2022-12-08T02:10:17;2.30;;;1.23;;
15126;SDS011;7664;52.008;4.748;2022-12-08T02:12:45;1.15;;;1.05;;
15126;SDS011;7664;52.008;4.748;2022-12-08T02:15:15;2.85;;;1.25;;
15126;SDS011;7664;52.008;4.748;2022-12-08T02:17:48;2.83;;;1.50;;
15126;SDS011;7664;52.008;4.748;2022-12-08T02:20:26;5.95;;;1.33;;
15126;SDS011;7664;52.008;4.748;2022-12-08T02:22:59;4.72;;;1.70;;
15126;SDS011;7664;52.008;4.748;2022-12-08T02:25:33;2.97;;;1.80;;
15126;SDS011;7664;52.008;4.748;2022-12-08T02:28:07;4.07;;;1.48;;
15126;SDS011;7664;52.008;4.748;2022-12-08T02:30:44;2.80;;;1.30;;
15126;SDS011;7664;52.008;4.748;2022-12-08T02:33:23;1.77;;;1.38;;
15126;SDS011;7664;52.008;4.748;2022-12-08T02:35:57;2.67;;;1.40;;
15126;SDS011;7664;52.008;4.748;2022-12-08T02:38:28;2.97;;;1.65;;
15126;SDS011;7664;52.008;4.748;2022-12-08T02:41:05;1.45;;;1.30;;
15126;SDS011;7664;52.008;4.748;2022-12-08T02:43:42;4.03;;;1.73;;
15126;SDS011;7664;52.008;4.748;2022-12-08T02:46:12;3.83;;;1.45;;
15126;SDS011;7664;52.008;4.748;2022-12-08T02:48:43;4.03;;;1.50;;
15126;SDS011;7664;52.008;4.748;2022-12-08T02:51:13;3.35;;;2.15;;
15126;SDS011;7664;52.008;4.748;2022-12-08T02:53:42;7.47;;;1.60;;
15126;SDS011;7664;52.008;4.748;2022-12-08T02:56:13;2.85;;;1.98;;
15126;SDS011;7664;52.008;4.748;2022-12-08T02:58:49;4.20;;;2.20;;
15126;SDS011;7664;52.008;4.748;2022-12-08T03:01:28;3.90;;;2.15;;
15126;SDS011;7664;52.008;4.748;2022-12-08T03:04:02;1.85;;;1.20;;
15126;SDS011;7664;52.008;4.748;2022-12-08T03:06:36;2.88;;;1.05;;
15126;SDS011;7664;52.008;4.748;2022-12-08T03:09:09;2.10;;;0.90;;
15126;SDS011;7664;52.008;4.748;2022-12-08T03:11:41;2.63;;;0.77;;
15126;SDS011;7664;52.008;4.748;2022-12-08T03:14:10;3.75;;;0.93;;
15126;SDS011;7664;52.008;4.748;2022-12-08T03:16:42;1.33;;;0.60;;
15126;SDS011;7664;52.008;4.748;2022-12-08T03:19:14;0.30;;;0.30;;
15126;SDS011;7664;52.008;4.748;2022-12-08T03:21:45;0.60;;;0.32;;
15126;SDS011;7664;52.008;4.748;2022-12-08T03:24:16;2.47;;;0.40;;
15126;SDS011;7664;52.008;4.748;2022-12-08T03:26:45;1.83;;;0.47;;
15126;SDS011;7664;52.008;4.748;2022-12-08T03:29:15;0.45;;;0.30;;
15126;SDS011;7664;52.008;4.748;2022-12-08T03:31:45;0.43;;;0.20;;
15126;SDS011;7664;52.008;4.748;2022-12-08T03:34:15;2.95;;;0.65;;
15126;SDS011;7664;52.008;4.748;2022-12-08T03:36:45;0.70;;;0.38;;
15126;SDS011;7664;52.008;4.748;2022-12-08T03:39:14;0.60;;;0.20;;
15126;SDS011;7664;52.008;4.748;2022-12-08T03:41:42;0.93;;;0.30;;
15126;SDS011;7664;52.008;4.748;2022-12-08T03:44:12;0.90;;;0.17;;
15126;SDS011;7664;52.008;4.748;2022-12-08T03:46:40;1.48;;;0.40;;
15126;SDS011;7664;52.008;4.748;2022-12-08T03:49:08;2.78;;;0.35;;
15126;SDS011;7664;52.008;4.748;2022-12-08T03:51:37;1.90;;;0.20;;
15126;SDS011;7664;52.008;4.748;2022-12-08T03:54:07;2.15;;;0.40;;
15126;SDS011;7664;52.008;4.748;2022-12-08T03:56:35;3.88;;;0.17;;
15126;SDS011;7664;52.008;4.748;2022-12-08T03:59:05;1.20;;;0.35;;
15126;SDS011;7664;52.008;4.748;2022-12-08T04:01:33;4.13;;;0.45;;
15126;SDS011;7664;52.008;4.748;2022-12-08T04:04:02;1.92;;;0.40;;
15126;SDS011;7664;52.008;4.748;2022-12-08T04:06:32;3.33;;;0.90;;
15126;SDS011;7664;52.008;4.748;2022-12-08T04:09:00;1.70;;;0.45;;
15126;SDS011;7664;52.008;4.748;2022-12-08T04:11:30;2.00;;;0.30;;
15126;SDS011;7664;52.008;4.748;2022-12-08T04:13:58;0.73;;;0.28;;
15126;SDS011;7664;52.008;4.748;2022-12-08T04:16:29;1.75;;;0.43;;
15126;SDS011;7664;52.008;4.748;2022-12-08T04:18:57;1.67;;;0.17;;
15126;SDS011;7664;52.008;4.748;2022-12-08T04:21:26;0.60;;;0.30;;
15126;SDS011;7664;52.008;4.748;2022-12-08T04:23:55;2.30;;;0.20;;
15126;SDS011;7664;52.008;4.748;2022-12-08T04:26:27;1.58;;;0.35;;
15126;SDS011;7664;52.008;4.748;2022-12-08T04:28:58;1.50;;;0.50;;
15126;SDS011;7664;52.008;4.748;2022-12-08T04:31:27;4.38;;;0.60;;
15126;SDS011;7664;52.008;4.748;2022-12-08T04:33:55;1.42;;;0.20;;
15126;SDS011;7664;52.008;4.748;2022-12-08T04:36:23;0.88;;;0.20;;
15126;SDS011;7664;52.008;4.748;2022-12-08T04:38:52;1.85;;;0.30;;
15126;SDS011;7664;52.008;4.748;2022-12-08T04:41:20;1.15;;;0.32;;
15126;SDS011;7664;52.008;4.748;2022-12-08T04:43:49;0.57;;;0.30;;
15126;SDS011;7664;52.008;4.748;2022-12-08T04:46:18;1.67;;;0.40;;
15126;SDS011;7664;52.008;4.748;2022-12-08T04:48:47;1.73;;;0.20;;
15126;SDS011;7664;52.008;4.748;2022-12-08T04:51:17;2.85;;;0.28;;
15126;SDS011;7664;52.008;4.748;2022-12-08T04:53:46;7.38;;;0.25;;
15126;SDS011;7664;52.008;4.748;2022-12-08T04:56:15;2.38;;;0.60;;
15126;SDS011;7664;52.008;4.748;2022-12-08T04:58:44;4.63;;;0.55;;
15126;SDS011;7664;52.008;4.748;2022-12-08T05:01:13;1.38;;;0.52;;
15126;SDS011;7664;52.008;4.748;2022-12-08T05:03:46;2.28;;;0.20;;
15126;SDS011;7664;52.008;4.748;2022-12-08T05:06:14;1.35;;;0.30;;
15126;SDS011;7664;52.008;4.748;2022-12-08T05:08:43;2.40;;;0.25;;
15126;SDS011;7664;52.008;4.748;2022-12-08T05:11:12;3.35;;;0.52;;
15126;SDS011;7664;52.008;4.748;2022-12-08T05:13:40;3.17;;;0.50;;
15126;SDS011;7664;52.008;4.748;2022-12-08T05:16:12;2.25;;;0.60;;
15126;SDS011;7664;52.008;4.748;2022-12-08T05:18:43;4.07;;;0.77;;
15126;SDS011;7664;52.008;4.748;2022-12-08T05:21:13;1.83;;;0.50;;
15126;SDS011;7664;52.008;4.748;2022-12-08T05:23:42;3.55;;;0.47;;
15126;SDS011;7664;52.008;4.748;2022-12-08T05:26:10;0.77;;;0.40;;
15126;SDS011;7664;52.008;4.748;2022-12-08T05:28:38;1.58;;;0.40;;
15126;SDS011;7664;52.008;4.748;2022-12-08T05:31:09;5.55;;;0.82;;
15126;SDS011;7664;52.008;4.748;2022-12-08T05:33:41;2.65;;;0.52;;
15126;SDS011;7664;52.008;4.748;2022-12-08T05:36:10;2.63;;;0.43;;
15126;SDS011;7664;52.008;4.748;2022-12-08T05:38:39;3.22;;;0.60;;
15126;SDS011;7664;52.008;4.748;2022-12-08T05:41:08;3.50;;;0.52;;
15126;SDS011;7664;52.008;4.748;2022-12-08T05:43:37;1.58;;;0.65;;
15126;SDS011;7664;52.008;4.748;2022-12-08T05:46:07;2.60;;;0.30;;
15126;SDS011;7664;52.008;4.748;2022-12-08T05:48:35;1.85;;;0.38;;
15126;SDS011;7664;52.008;4.748;2022-12-08T05:51:04;4.60;;;0.40;;
15126;SDS011;7664;52.008;4.748;2022-12-08T05:53:36;0.85;;;0.28;;
15126;SDS011;7664;52.008;4.748;2022-12-08T05:56:07;0.38;;;0.13;;
15126;SDS011;7664;52.008;4.748;2022-12-08T05:58:37;0.57;;;0.10;;
15126;SDS011;7664;52.008;4.748;2022-12-08T06:01:06;0.90;;;0.32;;
15126;SDS011;7664;52.008;4.748;2022-12-08T06:03:34;2.30;;;0.20;;
15126;SDS011;7664;52.008;4.748;2022-12-08T06:06:02;3.53;;;0.40;;
15126;SDS011;7664;52.008;4.748;2022-12-08T06:08:31;0.32;;;0.20;;
15126;SDS011;7664;52.008;4.748;2022-12-08T06:10:59;0.63;;;0.10;;
15126;SDS011;7664;52.008;4.748;2022-12-08T06:13:29;1.35;;;0.20;;
15126;SDS011;7664;52.008;4.748;2022-12-08T06:16:01;1.45;;;0.10;;
15126;SDS011;7664;52.008;4.748;2022-12-08T06:18:32;0.52;;;0.13;;
15126;SDS011;7664;52.008;4.748;2022-12-08T06:21:02;3.40;;;0.20;;
15126;SDS011;7664;52.008;4.748;2022-12-08T06:23:31;0.10;;;0.10;;
15126;SDS011;7664;52.008;4.748;2022-12-08T06:26:00;0.08;;;0.00;;
15126;SDS011;7664;52.008;4.748;2022-12-08T06:28:30;0.95;;;0.10;;
15126;SDS011;7664;52.008;4.748;2022-12-08T06:30:58;0.40;;;0.30;;
15126;SDS011;7664;52.008;4.748;2022-12-08T06:33:26;0.25;;;0.10;;
15126;SDS011;7664;52.008;4.748;2022-12-08T06:35:55;0.28;;;0.20;;
15126;SDS011;7664;52.008;4.748;2022-12-08T06:38:26;2.85;;;0.20;;
15126;SDS011;7664;52.008;4.748;2022-12-08T06:40:57;2.90;;;0.20;;
15126;SDS011;7664;52.008;4.748;2022-12-08T06:43:25;0.47;;;0.20;;
15126;SDS011;7664;52.008;4.748;2022-12-08T06:45:55;0.47;;;0.20;;
15126;SDS011;7664;52.008;4.748;2022-12-08T06:48:24;0.15;;;0.15;;
15126;SDS011;7664;52.008;4.748;2022-12-08T06:50:53;3.25;;;0.20;;
15126;SDS011;7664;52.008;4.748;2022-12-08T06:53:21;1.63;;;0.40;;
15126;SDS011;7664;52.008;4.748;2022-12-08T06:55:50;0.75;;;0.20;;
15126;SDS011;7664;52.008;4.748;2022-12-08T06:58:26;0.98;;;0.20;;
15126;SDS011;7664;52.008;4.748;2022-12-08T07:01:01;1.02;;;0.28;;
15126;SDS011;7664;52.008;4.748;2022-12-08T07:03:30;0.38;;;0.20;;
15126;SDS011;7664;52.008;4.748;2022-12-08T07:05:59;0.10;;;0.10;;
15126;SDS011;7664;52.008;4.748;2022-12-08T07:08:30;1.95;;;0.30;;
15126;SDS011;7664;52.008;4.748;2022-12-08T07:10:59;0.88;;;0.20;;
15126;SDS011;7664;52.008;4.748;2022-12-08T07:13:27;1.60;;;0.30;;
15126;SDS011;7664;52.008;4.748;2022-12-08T07:16:02;2.67;;;0.22;;
15126;SDS011;7664;52.008;4.748;2022-12-08T07:18:31;1.70;;;0.30;;
15126;SDS011;7664;52.008;4.748;2022-12-08T07:21:01;3.45;;;0.35;;
15126;SDS011;7664;52.008;4.748;2022-12-08T07:23:41;0.73;;;0.30;;
15126;SDS011;7664;52.008;4.748;2022-12-08T07:26:10;0.40;;;0.17;;
15126;SDS011;7664;52.008;4.748;2022-12-08T07:28:40;1.13;;;0.30;;
15126;SDS011;7664;52.008;4.748;2022-12-08T07:31:16;0.40;;;0.20;;
15126;SDS011;7664;52.008;4.748;2022-12-08T07:33:45;0.10;;;0.10;;
15126;SDS011;7664;52.008;4.748;2022-12-08T07:36:15;0.70;;;0.20;;
15126;SDS011;7664;52.008;4.748;2022-12-08T07:38:46;1.52;;;0.35;;
15126;SDS011;7664;52.008;4.748;2022-12-08T07:41:15;2.60;;;0.30;;
15126;SDS011;7664;52.008;4.748;2022-12-08T07:43:43;0.17;;;0.10;;
15126;SDS011;7664;52.008;4.748;2022-12-08T07:46:12;0.30;;;0.30;;
15126;SDS011;7664;52.008;4.748;2022-12-08T07:48:43;0.10;;;0.10;;
15126;SDS011;7664;52.008;4.748;2022-12-08T07:51:12;3.05;;;0.22;;
15126;SDS011;7664;52.008;4.748;2022-12-08T07:53:41;1.70;;;0.45;;
15126;SDS011;7664;52.008;4.748;2022-12-08T07:56:19;1.55;;;0.63;;
15126;SDS011;7664;52.008;4.748;2022-12-08T07:58:47;0.35;;;0.35;;
15126;SDS011;7664;52.008;4.748;2022-12-08T08:01:23;0.70;;;0.20;;
15126;SDS011;7664;52.008;4.748;2022-12-08T08:03:53;0.10;;;0.10;;
15126;SDS011;7664;52.008;4.748;2022-12-08T08:06:22;0.28;;;0.20;;
15126;SDS011;7664;52.008;4.748;2022-12-08T08:08:51;0.20;;;0.10;;
15126;SDS011;7664;52.008;4.748;2022-12-08T08:11:19;0.63;;;0.30;;
15126;SDS011;7664;52.008;4.748;2022-12-08T08:13:47;0.35;;;0.35;;
15126;SDS011;7664;52.008;4.748;2022-12-08T08:16:18;1.27;;;0.38;;
15126;SDS011;7664;52.008;4.748;2022-12-08T08:18:48;3.85;;;0.68;;
15126;SDS011;7664;52.008;4.748;2022-12-08T08:21:18;1.17;;;0.70;;
15126;SDS011;7664;52.008;4.748;2022-12-08T08:24:10;1.13;;;0.80;;
15126;SDS011;7664;52.008;4.748;2022-12-08T08:26:39;0.88;;;0.73;;
15126;SDS011;7664;52.008;4.748;2022-12-08T08:29:07;1.48;;;0.77;;
15126;SDS011;7664;52.008;4.748;2022-12-08T08:31:35;1.77;;;1.00;;
15126;SDS011;7664;52.008;4.748;2022-12-08T08:34:06;1.52;;;1.00;;
15126;SDS011;7664;52.008;4.748;2022-12-08T08:36:35;1.00;;;0.90;;
15126;SDS011;7664;52.008;4.748;2022-12-08T08:39:05;3.05;;;1.38;;
15126;SDS011;7664;52.008;4.748;2022-12-08T08:41:33;0.88;;;0.73;;
15126;SDS011;7664;52.008;4.748;2022-12-08T08:44:01;1.80;;;1.38;;
15126;SDS011;7664;52.008;4.748;2022-12-08T08:46:30;2.38;;;1.40;;
15126;SDS011;7664;52.008;4.748;2022-12-08T08:49:00;1.92;;;1.08;;
15126;SDS011;7664;52.008;4.748;2022-12-08T08:51:28;2.63;;;0.95;;
15126;SDS011;7664;52.008;4.748;2022-12-08T08:53:58;1.98;;;1.15;;
15126;SDS011;7664;52.008;4.748;2022-12-08T08:56:26;3.22;;;1.40;;
15126;SDS011;7664;52.008;4.748;2022-12-08T08:58:55;3.67;;;1.55;;
15126;SDS011;7664;52.008;4.748;2022-12-08T09:01:24;0.85;;;0.50;;
15126;SDS011;7664;52.008;4.748;2022-12-08T09:03:54;3.28;;;0.80;;
15126;SDS011;7664;52.008;4.748;2022-12-08T09:06:25;1.20;;;0.70;;
15126;SDS011;7664;52.008;4.748;2022-12-08T09:08:54;0.57;;;0.50;;
15126;SDS011;7664;52.008;4.748;2022-12-08T09:11:24;2.83;;;1.20;;
15126;SDS011;7664;52.008;4.748;2022-12-08T09:13:52;1.85;;;0.60;;
15126;SDS011;7664;52.008;4.748;2022-12-08T09:16:21;1.23;;;0.50;;
15126;SDS011;7664;52.008;4.748;2022-12-08T09:18:51;2.58;;;0.60;;
15126;SDS011;7664;52.008;4.748;2022-12-08T09:21:21;1.50;;;0.40;;
15126;SDS011;7664;52.008;4.748;2022-12-08T09:23:53;0.30;;;0.30;;
15126;SDS011;7664;52.008;4.748;2022-12-08T09:26:24;1.17;;;0.70;;
15126;SDS011;7664;52.008;4.748;2022-12-08T09:28:53;1.30;;;0.52;;
15126;SDS011;7664;52.008;4.748;2022-12-08T09:31:21;1.67;;;0.60;;
15126;SDS011;7664;52.008;4.748;2022-12-08T09:33:51;1.45;;;0.55;;
15126;SDS011;7664;52.008;4.748;2022-12-08T09:36:19;1.42;;;0.82;;
15126;SDS011;7664;52.008;4.748;2022-12-08T09:38:48;5.68;;;1.20;;
15126;SDS011;7664;52.008;4.748;2022-12-08T09:41:19;3.17;;;0.73;;
15126;SDS011;7664;52.008;4.748;2022-12-08T09:44:01;2.00;;;0.45;;
15126;SDS011;7664;52.008;4.748;2022-12-08T09:46:31;1.23;;;0.50;;
15126;SDS011;7664;52.008;4.748;2022-12-08T09:49:01;1.05;;;0.50;;
15126;SDS011;7664;52.008;4.748;2022-12-08T09:51:31;1.35;;;0.70;;
15126;SDS011;7664;52.008;4.748;2022-12-08T09:54:02;4.57;;;0.73;;
15126;SDS011;7664;52.008;4.748;2022-12-08T09:56:34;0.90;;;0.60;;
15126;SDS011;7664;52.008;4.748;2022-12-08T09:59:09;1.42;;;0.90;;
15126;SDS011;7664;52.008;4.748;2022-12-08T10:01:43;1.00;;;0.75;;
15126;SDS011;7664;52.008;4.748;2022-12-08T10:04:15;1.27;;;1.17;;
15126;SDS011;7664;52.008;4.748;2022-12-08T10:06:48;1.05;;;0.95;;
15126;SDS011;7664;52.008;4.748;2022-12-08T10:09:21;1.27;;;1.13;;
15126;SDS011;7664;52.008;4.748;2022-12-08T10:11:55;1.95;;;1.30;;
15126;SDS011;7664;52.008;4.748;2022-12-08T10:14:29;1.42;;;1.33;;
15126;SDS011;7664;52.008;4.748;2022-12-08T10:17:00;2.20;;;2.00;;
15126;SDS011;7664;52.008;4.748;2022-12-08T10:19:32;3.72;;;1.83;;
15126;SDS011;7664;52.008;4.748;2022-12-08T10:22:01;2.30;;;2.13;;
15126;SDS011;7664;52.008;4.748;2022-12-08T10:24:33;1.60;;;1.40;;
15126;SDS011;7664;52.008;4.748;2022-12-08T10:27:02;2.17;;;1.90;;
15126;SDS011;7664;52.008;4.748;2022-12-08T10:29:33;3.78;;;1.95;;
15126;SDS011;7664;52.008;4.748;2022-12-08T10:32:15;2.50;;;2.22;;
15126;SDS011;7664;52.008;4.748;2022-12-08T10:34:57;2.55;;;2.00;;
15126;SDS011;7664;52.008;4.748;2022-12-08T10:37:27;2.95;;;2.00;;
15126;SDS011;7664;52.008;4.748;2022-12-08T10:39:59;3.50;;;2.63;;
15126;SDS011;7664;52.008;4.748;2022-12-08T10:42:31;3.10;;;2.38;;
15126;SDS011;7664;52.008;4.748;2022-12-08T10:45:08;3.40;;;2.70;;
15126;SDS011;7664;52.008;4.748;2022-12-08T10:47:41;2.58;;;2.08;;
15126;SDS011;7664;52.008;4.748;2022-12-08T10:50:17;4.68;;;2.60;;
15126;SDS011;7664;52.008;4.748;2022-12-08T10:52:52;4.78;;;2.50;;
15126;SDS011;7664;52.008;4.748;2022-12-08T10:55:24;2.65;;;2.15;;
15126;SDS011;7664;52.008;4.748;2022-12-08T10:57:53;2.50;;;2.20;;
15126;SDS011;7664;52.008;4.748;2022-12-08T11:00:24;1.63;;;1.52;;
15126;SDS011;7664;52.008;4.748;2022-12-08T11:02:55;1.50;;;1.40;;
15126;SDS011;7664;52.008;4.748;2022-12-08T11:05:25;3.08;;;1.80;;
15126;SDS011;7664;52.008;4.748;2022-12-08T11:07:55;1.70;;;1.58;;
15126;SDS011;7664;52.008;4.748;2022-12-08T11:10:34;1.55;;;1.45;;
15126;SDS011;7664;52.008;4.748;2022-12-08T11:13:03;2.83;;;2.10;;
15126;SDS011;7664;52.008;4.748;2022-12-08T11:15:36;3.28;;;2.20;;
15126;SDS011;7664;52.008;4.748;2022-12-08T11:18:06;2.28;;;1.48;;
15126;SDS011;7664;52.008;4.748;2022-12-08T11:20:37;2.63;;;1.92;;
15126;SDS011;7664;52.008;4.748;2022-12-08T11:23:17;1.50;;;1.30;;
15126;SDS011;7664;52.008;4.748;2022-12-08T11:25:46;1.80;;;0.90;;
15126;SDS011;7664;52.008;4.748;2022-12-08T11:28:15;0.57;;;0.57;;
15126;SDS011;7664;52.008;4.748;2022-12-08T11:30:46;1.30;;;0.98;;
15126;SDS011;7664;52.008;4.748;2022-12-08T11:33:18;1.67;;;0.80;;
15126;SDS011;7664;52.008;4.748;2022-12-08T11:35:50;2.30;;;0.60;;
15126;SDS011;7664;52.008;4.748;2022-12-08T11:38:22;0.77;;;0.77;;
15126;SDS011;7664;52.008;4.748;2022-12-08T11:40:51;2.00;;;1.02;;
15126;SDS011;7664;52.008;4.748;2022-12-08T11:43:21;1.95;;;1.30;;
15126;SDS011;7664;52.008;4.748;2022-12-08T11:45:56;2.83;;;1.35;;
15126;SDS011;7664;52.008;4.748;2022-12-08T11:48:28;1.33;;;1.05;;
15126;SDS011;7664;52.008;4.748;2022-12-08T11:50:59;1.30;;;0.93;;
15126;SDS011;7664;52.008;4.748;2022-12-08T11:53:29;1.83;;;1.30;;
15126;SDS011;7664;52.008;4.748;2022-12-08T11:56:09;0.93;;;0.90;;
15126;SDS011;7664;52.008;4.748;2022-12-08T11:58:44;1.10;;;1.00;;
15126;SDS011;7664;52.008;4.748;2022-12-08T12:01:17;3.17;;;0.93;;
15126;SDS011;7664;52.008;4.748;2022-12-08T12:03:48;1.75;;;1.45;;
15126;SDS011;7664;52.008;4.748;2022-12-08T12:06:24;1.67;;;1.20;;
15126;SDS011;7664;52.008;4.748;2022-12-08T12:09:18;1.80;;;1.48;;
15126;SDS011;7664;52.008;4.748;2022-12-08T12:11:55;2.42;;;1.65;;
15126;SDS011;7664;52.008;4.748;2022-12-08T12:14:56;2.88;;;1.48;;
15126;SDS011;7664;52.008;4.748;2022-12-08T12:17:32;1.98;;;1.73;;
15126;SDS011;7664;52.008;4.748;2022-12-08T12:20:03;3.85;;;1.17;;
15126;SDS011;7664;52.008;4.748;2022-12-08T12:22:39;0.82;;;0.30;;
15126;SDS011;7664;52.008;4.748;2022-12-08T12:25:14;0.55;;;0.40;;
15126;SDS011;7664;52.008;4.748;2022-12-08T12:27:43;0.35;;;0.22;;
15126;SDS011;7664;52.008;4.748;2022-12-08T12:30:18;1.15;;;0.35;;
15126;SDS011;7664;52.008;4.748;2022-12-08T12:32:50;0.38;;;0.30;;
15126;SDS011;7664;52.008;4.748;2022-12-08T12:35:24;1.13;;;0.52;;
15126;SDS011;7664;52.008;4.748;2022-12-08T12:37:55;2.75;;;0.20;;
15126;SDS011;7664;52.008;4.748;2022-12-08T12:40:25;3.08;;;0.40;;
15126;SDS011;7664;52.008;4.748;2022-12-08T12:43:13;0.82;;;0.28;;
15126;SDS011;7664;52.008;4.748;2022-12-08T12:45:49;1.25;;;0.20;;
15126;SDS011;7664;52.008;4.748;2022-12-08T12:48:23;0.77;;;0.30;;
15126;SDS011;7664;52.008;4.748;2022-12-08T12:50:53;1.80;;;0.40;;
15126;SDS011;7664;52.008;4.748;2022-12-08T12:56:09;0.95;;;0.40;;
15126;SDS011;7664;52.008;4.748;2022-12-08T12:58:38;1.05;;;0.60;;
15126;SDS011;7664;52.008;4.748;2022-12-08T13:04:03;0.30;;;0.20;;
15126;SDS011;7664;52.008;4.748;2022-12-08T13:06:34;1.08;;;0.30;;
15126;SDS011;7664;52.008;4.748;2022-12-08T13:09:03;1.77;;;0.40;;
15126;SDS011;7664;52.008;4.748;2022-12-08T13:11:43;2.20;;;0.22;;
15126;SDS011;7664;52.008;4.748;2022-12-08T13:14:23;0.40;;;0.30;;
15126;SDS011;7664;52.008;4.748;2022-12-08T13:16:53;1.02;;;0.40;;
15126;SDS011;7664;52.008;4.748;2022-12-08T13:19:25;0.88;;;0.65;;
15126;SDS011;7664;52.008;4.748;2022-12-08T13:21:56;1.15;;;0.57;;
15126;SDS011;7664;52.008;4.748;2022-12-08T13:24:32;1.45;;;0.77;;
15126;SDS011;7664;52.008;4.748;2022-12-08T13:29:59;4.07;;;1.20;;
15126;SDS011;7664;52.008;4.748;2022-12-08T13:32:52;1.38;;;0.60;;
15126;SDS011;7664;52.008;4.748;2022-12-08T13:35:46;2.78;;;1.25;;
15126;SDS011;7664;52.008;4.748;2022-12-08T13:38:16;1.17;;;0.60;;
15126;SDS011;7664;52.008;4.748;2022-12-08T13:40:46;1.27;;;0.80;;
15126;SDS011;7664;52.008;4.748;2022-12-08T13:43:15;1.23;;;0.82;;
15126;SDS011;7664;52.008;4.748;2022-12-08T13:45:47;0.80;;;0.70;;
15126;SDS011;7664;52.008;4.748;2022-12-08T13:48:42;1.85;;;1.23;;
15126;SDS011;7664;52.008;4.748;2022-12-08T13:51:36;1.40;;;0.90;;
15126;SDS011;7664;52.008;4.748;2022-12-08T13:54:28;0.60;;;0.60;;
15126;SDS011;7664;52.008;4.748;2022-12-08T13:57:22;1.20;;;0.90;;
15126;SDS011;7664;52.008;4.748;2022-12-08T13:59:51;0.70;;;0.70;;
15126;SDS011;7664;52.008;4.748;2022-12-08T14:02:23;3.20;;;0.98;;
15126;SDS011;7664;52.008;4.748;2022-12-08T14:04:56;1.23;;;0.85;;
15126;SDS011;7664;52.008;4.748;2022-12-08T14:07:46;1.20;;;0.75;;
15126;SDS011;7664;52.008;4.748;2022-12-08T14:10:16;1.30;;;0.73;;
15126;SDS011;7664;52.008;4.748;2022-12-08T14:12:47;2.00;;;1.15;;
15126;SDS011;7664;52.008;4.748;2022-12-08T14:15:19;1.73;;;0.85;;
15126;SDS011;7664;52.008;4.748;2022-12-08T14:17:49;1.02;;;0.70;;
15126;SDS011;7664;52.008;4.748;2022-12-08T14:20:19;1.38;;;0.80;;
15126;SDS011;7664;52.008;4.748;2022-12-08T14:22:49;0.90;;;0.68;;
15126;SDS011;7664;52.008;4.748;2022-12-08T14:25:21;1.52;;;0.90;;
15126;SDS011;7664;52.008;4.748;2022-12-08T14:27:54;2.60;;;0.90;;
15126;SDS011;7664;52.008;4.748;2022-12-08T14:30:27;1.83;;;0.93;;
15126;SDS011;7664;52.008;4.748;2022-12-08T14:32:57;2.33;;;1.50;;
15126;SDS011;7664;52.008;4.748;2022-12-08T14:35:27;1.60;;;1.50;;
15126;SDS011;7664;52.008;4.748;2022-12-08T14:37:57;1.10;;;1.00;;
15126;SDS011;7664;52.008;4.748;2022-12-08T14:40:28;1.05;;;0.95;;
15126;SDS011;7664;52.008;4.748;2022-12-08T14:43:04;1.90;;;0.60;;
15126;SDS011;7664;52.008;4.748;2022-12-08T14:45:34;0.57;;;0.57;;
15126;SDS011;7664;52.008;4.748;2022-12-08T14:48:19;2.88;;;0.70;;
15126;SDS011;7664;52.008;4.748;2022-12-08T14:50:58;3.95;;;1.27;;
15126;SDS011;7664;52.008;4.748;2022-12-08T14:53:36;4.97;;;0.50;;
15126;SDS011;7664;52.008;4.748;2022-12-08T14:56:06;2.30;;;0.47;;
15126;SDS011;7664;52.008;4.748;2022-12-08T14:58:37;1.52;;;0.45;;
15126;SDS011;7664;52.008;4.748;2022-12-08T15:01:05;1.08;;;0.50;;
15126;SDS011;7664;52.008;4.748;2022-12-08T15:03:35;0.40;;;0.40;;
15126;SDS011;7664;52.008;4.748;2022-12-08T15:06:04;2.63;;;0.50;;
15126;SDS011;7664;52.008;4.748;2022-12-08T15:08:33;0.40;;;0.40;;
15126;SDS011;7664;52.008;4.748;2022-12-08T15:11:25;1.35;;;0.65;;
15126;SDS011;7664;52.008;4.748;2022-12-08T15:13:55;0.68;;;0.68;;
15126;SDS011;7664;52.008;4.748;2022-12-08T15:16:26;1.95;;;0.93;;
15126;SDS011;7664;52.008;4.748;2022-12-08T15:19:03;0.73;;;0.60;;
15126;SDS011;7664;52.008;4.748;2022-12-08T15:21:37;2.60;;;0.98;;
15126;SDS011;7664;52.008;4.748;2022-12-08T15:24:08;5.35;;;1.05;;
15126;SDS011;7664;52.008;4.748;2022-12-08T15:26:40;2.42;;;0.90;;
15126;SDS011;7664;52.008;4.748;2022-12-08T15:29:10;1.17;;;1.00;;
15126;SDS011;7664;52.008;4.748;2022-12-08T15:31:38;3.35;;;0.85;;
15126;SDS011;7664;52.008;4.748;2022-12-08T15:34:07;1.52;;;0.60;;